createdAt,value
2022-09-12T00:02:05.218Z,59.70
2022-09-12T00:04:34.073Z,60.40
2022-09-12T00:07:02.751Z,61.10
2022-09-12T00:09:32.679Z,60.90
2022-09-12T00:12:01.569Z,60.10
2022-09-12T00:14:30.732Z,59.40
2022-09-12T00:17:00.606Z,59.10
2022-09-12T00:19:31.548Z,58.40
2022-09-12T00:22:00.224Z,60.50
2022-09-12T00:24:28.963Z,62.50
2022-09-12T00:26:59.068Z,60.70
2022-09-12T00:29:27.702Z,60.20
2022-09-12T00:31:56.302Z,60.10
2022-09-12T00:34:25.179Z,59.10
2022-09-12T00:36:53.862Z,59.00
2022-09-12T00:39:22.448Z,58.60
2022-09-12T00:41:51.684Z,58.50
2022-09-12T00:44:51.069Z,59.00
2022-09-12T00:47:26.237Z,59.00
2022-09-12T00:50:06.226Z,59.10
2022-09-12T00:52:42.702Z,58.30
2022-09-12T00:55:16.556Z,58.70
2022-09-12T01:02:20.049Z,59.60
2022-09-12T01:04:49.662Z,59.30
2022-09-12T01:07:18.468Z,60.10
2022-09-12T01:09:48.128Z,60.90
2022-09-12T01:12:17.764Z,59.90
2022-09-12T01:14:46.475Z,61.00
2022-09-12T01:17:16.937Z,60.90
2022-09-12T01:20:28.393Z,61.30
2022-09-12T01:24:08.054Z,62.90
2022-09-12T01:27:35.757Z,61.50
2022-09-12T01:30:49.094Z,60.10
2022-09-12T01:33:35.266Z,59.20
2022-09-12T01:36:46.036Z,59.00
2022-09-12T01:39:31.274Z,59.00
2022-09-12T01:42:16.320Z,59.80
2022-09-12T01:49:24.513Z,60.70
2022-09-12T01:52:04.594Z,60.90
2022-09-12T01:54:42.259Z,60.70
2022-09-12T01:57:19.934Z,60.20
2022-09-12T01:59:55.769Z,60.30
2022-09-12T02:02:33.229Z,60.10
2022-09-12T02:05:11.640Z,60.00
2022-09-12T02:07:47.490Z,59.00
2022-09-12T02:10:21.842Z,58.70
2022-09-12T02:12:58.448Z,60.50
2022-09-12T02:15:33.641Z,60.30
2022-09-12T02:18:07.029Z,61.60
2022-09-12T02:20:49.116Z,61.70
2022-09-12T02:23:24.425Z,60.80
2022-09-12T02:26:01.306Z,62.60
2022-09-12T02:28:35.738Z,61.70
2022-09-12T02:31:18.773Z,61.70
2022-09-12T02:33:59.060Z,61.10
2022-09-12T02:36:46.188Z,61.90
2022-09-12T02:39:19.615Z,61.10
2022-09-12T02:41:49.183Z,62.70
2022-09-12T02:44:18.012Z,62.80
2022-09-12T02:46:51.714Z,61.30
2022-09-12T02:49:21.221Z,60.40
2022-09-12T02:51:52.038Z,60.10
2022-09-12T02:54:22.429Z,59.30
2022-09-12T02:56:51.174Z,58.50
2022-09-12T02:59:24.107Z,57.90
2022-09-12T03:02:23.330Z,58.10
2022-09-12T03:05:25.899Z,58.40
2022-09-12T03:08:52.058Z,59.60
2022-09-12T03:11:39.201Z,59.10
2022-09-12T03:14:31.673Z,60.00
2022-09-12T03:17:15.599Z,59.70
2022-09-12T03:19:59.985Z,59.60
2022-09-12T03:22:37.989Z,62.30
2022-09-12T03:25:18.703Z,62.60
2022-09-12T03:28:00.207Z,62.70
2022-09-12T03:30:29.173Z,62.30
2022-09-12T03:32:57.849Z,62.50
2022-09-12T03:35:26.795Z,62.20
2022-09-12T03:37:55.583Z,61.80
2022-09-12T03:40:25.513Z,61.40
2022-09-12T03:42:54.087Z,60.70
2022-09-12T03:45:22.905Z,60.40
2022-09-12T03:47:51.577Z,59.90
2022-09-12T03:50:20.343Z,59.50
2022-09-12T03:52:49.160Z,59.10
2022-09-12T03:55:18.200Z,59.20
2022-09-12T03:57:48.333Z,59.00
2022-09-12T04:00:19.895Z,60.90
2022-09-12T04:02:48.704Z,61.00
2022-09-12T04:09:49.289Z,60.10
2022-09-12T04:12:18.095Z,58.60
2022-09-12T04:14:48.058Z,57.90
2022-09-12T04:17:17.248Z,58.50
2022-09-12T04:19:45.995Z,58.20
2022-09-12T04:22:14.948Z,58.00
2022-09-12T04:24:43.526Z,57.60
2022-09-12T04:27:12.323Z,58.50
2022-09-12T04:29:41.620Z,59.10
2022-09-12T04:32:11.755Z,61.00
2022-09-12T04:34:40.538Z,61.00
2022-09-12T04:37:09.094Z,61.40
2022-09-12T04:39:37.687Z,60.90
2022-09-12T04:42:07.304Z,60.40
2022-09-12T04:49:10.710Z,59.20
2022-09-12T04:51:42.286Z,58.20
2022-09-12T04:54:17.445Z,58.30
2022-09-12T04:56:48.791Z,58.20
2022-09-12T05:03:50.383Z,58.20
2022-09-12T05:06:22.831Z,57.70
2022-09-12T05:08:53.223Z,59.40
2022-09-12T05:11:33.006Z,59.30
2022-09-12T05:14:10.750Z,60.30
2022-09-12T05:16:40.315Z,59.60
2022-09-12T05:19:10.680Z,59.50
2022-09-12T05:21:40.600Z,61.40
2022-09-12T05:24:11.975Z,60.30
2022-09-12T05:26:40.570Z,61.80
2022-09-12T05:29:09.239Z,61.10
2022-09-12T05:31:39.175Z,60.50
2022-09-12T05:34:10.249Z,59.30
2022-09-12T05:36:40.667Z,59.10
2022-09-12T05:39:09.548Z,59.10
2022-09-12T05:41:38.185Z,60.00
2022-09-12T05:44:14.138Z,60.20
2022-09-12T05:51:19.283Z,58.60
2022-09-12T05:53:52.918Z,57.90
2022-09-12T05:56:25.338Z,56.90
2022-09-12T05:58:57.194Z,57.90
2022-09-12T06:01:28.164Z,57.10
2022-09-12T06:04:00.907Z,58.00
2022-09-12T06:06:32.444Z,57.50
2022-09-12T06:09:05.156Z,57.00
2022-09-12T06:11:37.305Z,57.30
2022-09-12T06:14:06.280Z,57.20
2022-09-12T06:16:37.298Z,58.30
2022-09-12T06:23:39.302Z,58.90
2022-09-12T06:26:11.983Z,58.20
2022-09-12T06:28:44.943Z,57.50
2022-09-12T06:35:47.768Z,57.70
2022-09-12T06:38:17.406Z,59.70
2022-09-12T06:40:46.249Z,60.70
2022-09-12T06:43:16.428Z,60.80
2022-09-12T06:45:51.145Z,60.70
2022-09-12T06:48:20.146Z,61.60
2022-09-12T06:50:58.834Z,60.80
2022-09-12T06:53:29.324Z,59.60
2022-09-12T06:55:59.662Z,59.60
2022-09-12T06:58:31.292Z,62.20
2022-09-12T07:01:04.771Z,62.20
2022-09-12T07:03:35.809Z,61.00
2022-09-12T07:06:06.462Z,60.70
2022-09-12T07:08:37.642Z,61.70
2022-09-12T07:11:16.645Z,62.80
2022-09-12T07:18:18.074Z,63.60
2022-09-12T07:20:46.847Z,62.40
2022-09-12T07:23:15.392Z,61.00
2022-09-12T07:25:44.009Z,62.10
2022-09-12T07:28:12.955Z,60.80
2022-09-12T07:30:41.751Z,61.50
2022-09-12T07:33:10.525Z,62.50
2022-09-12T07:35:40.695Z,61.10
2022-09-12T07:38:09.403Z,60.50
2022-09-12T07:40:38.008Z,60.40
2022-09-12T07:43:06.803Z,59.70
2022-09-12T07:45:35.668Z,58.40
2022-09-12T07:48:04.976Z,58.30
2022-09-12T07:50:34.256Z,58.70
2022-09-12T07:53:04.242Z,59.30
2022-09-12T07:55:33.918Z,59.40
2022-09-12T07:58:03.903Z,59.10
2022-09-12T08:00:35.973Z,59.20
2022-09-12T08:07:35.868Z,59.50
2022-09-12T08:10:07.381Z,58.30
2022-09-12T08:12:36.836Z,58.60
2022-09-12T08:15:07.133Z,59.00
2022-09-12T08:17:35.822Z,58.90
2022-09-12T08:20:05.494Z,59.60
2022-09-12T08:22:34.673Z,59.90
2022-09-12T08:25:06.627Z,59.30
2022-09-12T08:27:35.440Z,59.50
2022-09-12T08:30:05.362Z,59.30
2022-09-12T08:32:36.221Z,58.20
2022-09-12T08:35:05.476Z,58.00
2022-09-12T08:37:34.206Z,61.00
2022-09-12T08:40:08.547Z,61.20
2022-09-12T08:42:53.951Z,62.60
2022-09-12T08:45:33.119Z,61.30
2022-09-12T08:48:05.847Z,60.70
2022-09-12T08:50:34.663Z,59.80
2022-09-12T08:53:13.625Z,60.70
2022-09-12T08:55:47.341Z,60.30
2022-09-12T08:58:19.719Z,59.10
2022-09-12T09:01:01.806Z,58.90
2022-09-12T09:04:13.851Z,59.40
2022-09-12T09:07:18.308Z,60.30
2022-09-12T09:10:04.154Z,60.00
2022-09-12T09:12:48.638Z,59.40
2022-09-12T09:15:49.853Z,60.20
2022-09-12T09:18:25.071Z,60.00
2022-09-12T09:20:59.680Z,58.70
2022-09-12T09:23:33.431Z,58.40
2022-09-12T09:26:11.365Z,59.90
2022-09-12T09:28:47.497Z,58.40
2022-09-12T09:31:18.446Z,58.60
2022-09-12T09:33:51.711Z,58.90
2022-09-12T09:36:27.045Z,59.10
2022-09-12T09:39:05.875Z,58.40
2022-09-12T09:41:53.899Z,58.20
2022-09-12T09:44:24.746Z,57.60
2022-09-12T09:46:59.126Z,56.90
2022-09-12T09:49:31.426Z,56.70
2022-09-12T09:52:02.750Z,59.70
2022-09-12T09:54:39.838Z,59.30
2022-09-12T09:57:42.096Z,59.20
2022-09-12T10:00:32.786Z,58.20
2022-09-12T10:03:30.919Z,57.00
2022-09-12T10:06:03.108Z,57.60
2022-09-12T10:08:35.375Z,56.90
2022-09-12T10:11:08.791Z,55.90
2022-09-12T10:13:43.175Z,55.90
2022-09-12T10:16:23.249Z,55.40
2022-09-12T10:18:53.950Z,55.80
2022-09-12T10:21:35.841Z,56.70
2022-09-12T10:24:22.640Z,58.40
2022-09-12T10:26:57.169Z,58.60
2022-09-12T10:29:31.765Z,57.10
2022-09-12T10:32:07.262Z,56.50
2022-09-12T10:34:40.545Z,56.40
2022-09-12T10:37:16.780Z,56.30
2022-09-12T10:39:54.384Z,55.80
2022-09-12T10:42:47.950Z,56.00
2022-09-12T10:45:26.762Z,55.90
2022-09-12T10:48:02.082Z,55.50
2022-09-12T10:50:40.909Z,55.80
2022-09-12T10:53:21.382Z,55.40
2022-09-12T10:56:08.918Z,55.80
2022-09-12T10:59:05.522Z,56.10
2022-09-12T11:01:42.813Z,55.50
2022-09-12T11:04:34.775Z,55.50
2022-09-12T11:07:22.869Z,55.00
2022-09-12T11:10:04.419Z,54.50
2022-09-12T11:12:44.731Z,54.60
2022-09-12T11:15:41.845Z,54.20
2022-09-12T11:18:28.299Z,55.00
2022-09-12T11:21:20.675Z,55.20
2022-09-12T11:24:22.904Z,54.60
2022-09-12T11:28:30.314Z,54.80
2022-09-12T11:31:23.568Z,54.80
2022-09-12T11:33:56.699Z,55.00
2022-09-12T11:36:38.742Z,55.50
2022-09-12T11:39:18.535Z,55.80
2022-09-12T11:41:53.638Z,56.00
2022-09-12T11:44:30.213Z,56.30
2022-09-12T11:47:00.867Z,56.60
2022-09-12T11:49:39.924Z,56.60
2022-09-12T11:52:17.014Z,56.00
2022-09-12T11:54:54.045Z,56.50
2022-09-12T11:57:34.842Z,58.80
2022-09-12T12:00:08.642Z,58.80
2022-09-12T12:02:49.242Z,59.70
2022-09-12T12:05:26.002Z,59.50
2022-09-12T12:07:58.431Z,59.00
2022-09-12T12:10:37.244Z,58.10
2022-09-12T12:13:18.168Z,58.60
2022-09-12T12:15:51.563Z,59.80
2022-09-12T12:18:25.619Z,59.90
2022-09-12T12:20:58.081Z,58.10
2022-09-12T12:23:33.311Z,57.30
2022-09-12T12:26:04.601Z,57.60
2022-09-12T12:29:00.267Z,57.10
2022-09-12T12:31:29.029Z,55.80
2022-09-12T12:34:28.672Z,55.00
2022-09-12T12:36:59.198Z,55.00
2022-09-12T12:40:09.293Z,55.00
2022-09-12T12:43:04.642Z,56.20
2022-09-12T12:46:14.396Z,56.10
2022-09-12T12:49:18.943Z,56.10
2022-09-12T12:51:58.206Z,54.80
2022-09-12T12:59:06.166Z,56.20
2022-09-12T13:01:41.037Z,55.30
2022-09-12T13:04:18.903Z,54.80
2022-09-12T13:11:34.490Z,55.30
2022-09-12T13:14:09.516Z,54.40
2022-09-12T13:16:55.701Z,54.00
2022-09-12T13:19:30.478Z,53.70
2022-09-12T13:22:03.451Z,53.60
2022-09-12T13:24:32.326Z,53.50
2022-09-12T13:27:02.285Z,53.70
2022-09-12T13:29:32.371Z,52.60
2022-09-12T13:32:04.145Z,52.90
2022-09-12T13:34:38.359Z,53.80
2022-09-12T13:37:48.656Z,54.40
2022-09-12T13:40:36.407Z,54.10
2022-09-12T13:43:15.938Z,53.00
2022-09-12T13:45:48.695Z,53.10
2022-09-12T13:48:22.617Z,53.30
2022-09-12T13:50:56.231Z,53.60
2022-09-12T13:53:29.844Z,53.20
2022-09-12T13:56:00.963Z,53.40
2022-09-12T13:58:33.008Z,52.60
2022-09-12T14:01:07.715Z,52.20
2022-09-12T14:04:00.834Z,52.00
2022-09-12T14:06:29.960Z,52.20
2022-09-12T14:09:01.506Z,52.10
2022-09-12T14:11:33.942Z,51.70
2022-09-12T14:14:17.281Z,52.90
2022-09-12T14:16:47.435Z,52.70
2022-09-12T14:19:19.461Z,52.30
2022-09-12T14:21:49.907Z,51.90
2022-09-12T14:24:19.786Z,51.70
2022-09-12T14:26:50.392Z,51.70
2022-09-12T14:29:20.971Z,51.90
2022-09-12T14:32:03.691Z,51.00
2022-09-12T14:34:32.495Z,50.70
2022-09-12T14:37:07.295Z,50.40
2022-09-12T14:39:44.129Z,50.80
2022-09-12T14:42:18.969Z,50.40
2022-09-12T14:44:58.768Z,50.20
2022-09-12T14:47:42.107Z,50.50
2022-09-12T14:50:19.694Z,50.10
2022-09-12T14:53:04.233Z,50.20
2022-09-12T14:55:35.659Z,49.50
2022-09-12T14:58:23.517Z,49.10
2022-09-12T15:00:59.281Z,49.70
2022-09-12T15:03:33.765Z,51.40
2022-09-12T15:06:04.937Z,51.30
2022-09-12T15:08:34.461Z,51.10
2022-09-12T15:11:03.334Z,51.50
2022-09-12T15:13:42.840Z,51.90
2022-09-12T15:16:13.995Z,51.70
2022-09-12T15:18:44.390Z,50.70
2022-09-12T15:21:18.526Z,51.80
2022-09-12T15:23:49.857Z,51.70
2022-09-12T15:26:21.851Z,51.80
2022-09-12T15:28:52.130Z,51.30
2022-09-12T15:31:26.398Z,50.90
2022-09-12T15:33:58.517Z,50.50
2022-09-12T15:36:28.910Z,49.90
2022-09-12T15:38:58.204Z,49.60
2022-09-12T15:41:34.014Z,49.60
2022-09-12T15:44:04.589Z,49.50
2022-09-12T15:46:33.249Z,49.50
2022-09-12T15:49:03.442Z,49.30
2022-09-12T15:51:32.343Z,49.40
2022-09-12T15:54:04.605Z,49.60
2022-09-12T15:56:33.398Z,49.80
2022-09-12T15:59:02.078Z,49.50
2022-09-12T16:01:30.910Z,48.80
2022-09-12T16:03:59.898Z,48.30
2022-09-12T16:06:37.044Z,49.30
2022-09-12T16:09:06.317Z,49.50
2022-09-12T16:11:35.536Z,49.60
2022-09-12T16:14:06.380Z,49.70
2022-09-12T16:16:35.759Z,49.80
2022-09-12T16:19:05.237Z,50.20
2022-09-12T16:21:35.321Z,50.60
2022-09-12T16:24:05.646Z,50.90
2022-09-12T16:26:35.526Z,50.80
2022-09-12T16:29:04.318Z,51.00
2022-09-12T16:31:33.372Z,50.50
2022-09-12T16:34:02.096Z,50.50
2022-09-12T16:36:30.723Z,50.60
2022-09-12T16:39:00.996Z,50.80
2022-09-12T16:46:04.693Z,51.20
2022-09-12T16:48:34.397Z,51.70
2022-09-12T16:51:06.897Z,51.30
2022-09-12T16:53:39.645Z,51.20
2022-09-12T16:56:11.206Z,51.10
2022-09-12T16:58:43.186Z,51.10
2022-09-12T17:01:16.697Z,51.00
2022-09-12T17:03:45.724Z,51.00
2022-09-12T17:06:17.434Z,51.20
2022-09-12T17:08:49.018Z,51.20
2022-09-12T17:11:22.074Z,51.40
2022-09-12T17:14:09.943Z,51.60
2022-09-12T17:16:49.290Z,51.20
2022-09-12T17:19:26.431Z,51.20
2022-09-12T17:21:55.741Z,51.30
2022-09-12T17:24:25.241Z,51.20
2022-09-12T17:26:57.273Z,51.20
2022-09-12T17:29:26.090Z,51.60
2022-09-12T17:31:56.172Z,51.70
2022-09-12T17:34:24.904Z,51.80
2022-09-12T17:36:54.042Z,51.80
2022-09-12T17:39:23.171Z,51.90
2022-09-12T17:41:52.373Z,51.60
2022-09-12T17:44:24.424Z,51.30
2022-09-12T17:46:53.395Z,51.50
2022-09-12T17:54:01.129Z,51.90
2022-09-12T17:56:32.490Z,51.70
2022-09-12T17:59:03.340Z,51.80
2022-09-12T18:01:53.029Z,51.70
2022-09-12T18:04:22.277Z,51.70
2022-09-12T18:06:51.310Z,51.80
2022-09-12T18:09:23.765Z,52.00
2022-09-12T18:11:53.763Z,52.00
2022-09-12T18:14:23.134Z,51.80
2022-09-12T18:16:53.507Z,51.80
2022-09-12T18:19:23.383Z,51.80
2022-09-12T18:21:52.049Z,51.70
2022-09-12T18:24:21.632Z,51.50
2022-09-12T18:26:50.575Z,51.30
2022-09-12T18:29:20.373Z,51.60
2022-09-12T18:31:49.765Z,51.70
2022-09-12T18:34:20.639Z,51.80
2022-09-12T18:36:51.673Z,52.00
2022-09-12T18:39:24.107Z,51.80
2022-09-12T18:41:57.020Z,52.20
2022-09-12T18:44:26.287Z,52.20
2022-09-12T18:46:55.426Z,52.30
2022-09-12T18:49:25.844Z,52.20
2022-09-12T18:51:54.743Z,52.10
2022-09-12T18:54:23.432Z,52.20
2022-09-12T18:56:52.132Z,52.90
2022-09-12T18:59:21.102Z,52.30
2022-09-12T19:01:50.746Z,52.40
2022-09-12T19:04:20.241Z,52.00
2022-09-12T19:06:50.653Z,51.90
2022-09-12T19:09:22.107Z,51.90
2022-09-12T19:11:52.790Z,52.30
2022-09-12T19:14:25.009Z,52.40
2022-09-12T19:16:55.073Z,52.40
2022-09-12T19:19:24.542Z,52.30
2022-09-12T19:21:54.950Z,52.30
2022-09-12T19:24:24.437Z,52.00
2022-09-12T19:26:53.410Z,51.90
2022-09-12T19:29:22.106Z,51.80
2022-09-12T19:31:51.302Z,51.80
2022-09-12T19:34:20.138Z,51.80
2022-09-12T19:36:48.881Z,51.90
2022-09-12T19:39:20.654Z,51.90
2022-09-12T19:41:49.734Z,52.10
2022-09-12T19:44:20.049Z,52.00
2022-09-12T19:46:48.904Z,52.00
2022-09-12T19:49:17.762Z,52.60
2022-09-12T19:51:46.622Z,52.00
2022-09-12T19:54:15.269Z,51.80
2022-09-12T19:56:45.222Z,51.60
2022-09-12T19:59:14.181Z,51.50
2022-09-12T20:01:43.096Z,51.60
2022-09-12T20:04:11.933Z,51.60
2022-09-12T20:06:40.841Z,51.80
2022-09-12T20:09:09.437Z,51.90
2022-09-12T20:11:38.044Z,51.80
2022-09-12T20:14:08.206Z,51.80
2022-09-12T20:16:36.944Z,51.80
2022-09-12T20:19:08.690Z,52.00
2022-09-12T20:21:38.048Z,52.00
2022-09-12T20:24:11.133Z,51.90
2022-09-12T20:26:41.034Z,51.50
2022-09-12T20:29:11.864Z,51.30
2022-09-12T20:31:43.516Z,51.30
2022-09-12T20:34:17.426Z,51.30
2022-09-12T20:36:47.067Z,51.70
2022-09-12T20:39:18.933Z,51.80
2022-09-12T20:41:48.474Z,51.70
2022-09-12T20:44:18.888Z,52.00
2022-09-12T20:46:47.890Z,52.00
2022-09-12T20:49:16.747Z,52.00
2022-09-12T20:51:45.432Z,51.90
2022-09-12T20:54:14.027Z,52.10
2022-09-12T20:56:43.194Z,52.20
2022-09-12T20:59:13.055Z,52.20
2022-09-12T21:01:44.064Z,52.20
2022-09-12T21:04:15.269Z,52.30
2022-09-12T21:06:44.117Z,52.20
2022-09-12T21:09:12.795Z,52.20
2022-09-12T21:11:41.713Z,52.10
2022-09-12T21:14:10.593Z,52.10
2022-09-12T21:16:39.393Z,51.90
2022-09-12T21:19:10.009Z,51.70
2022-09-12T21:21:38.652Z,51.60
2022-09-12T21:24:08.583Z,51.50
2022-09-12T21:26:37.381Z,51.40
2022-09-12T21:29:06.334Z,51.50
2022-09-12T21:31:34.985Z,51.60
2022-09-12T21:34:03.996Z,51.60
2022-09-12T21:36:33.877Z,51.60
2022-09-12T21:39:02.540Z,51.40
2022-09-12T21:41:31.299Z,51.10
2022-09-12T21:43:59.972Z,51.10
2022-09-12T21:46:28.629Z,51.10
2022-09-12T21:48:57.511Z,51.30
2022-09-12T21:51:26.288Z,51.60
2022-09-12T21:53:56.221Z,51.80
2022-09-12T21:56:24.999Z,51.90
2022-09-12T21:58:53.572Z,51.90
2022-09-12T22:01:22.336Z,52.00
2022-09-12T22:03:52.056Z,51.80
2022-09-12T22:06:22.534Z,51.90
2022-09-12T22:08:51.550Z,51.70
2022-09-12T22:11:22.930Z,51.60
2022-09-12T22:13:51.533Z,51.70
2022-09-12T22:16:20.786Z,51.50
2022-09-12T22:18:50.775Z,51.50
2022-09-12T22:21:24.281Z,51.70
2022-09-12T22:24:10.760Z,51.80
2022-09-12T22:26:46.402Z,51.90
2022-09-12T22:29:15.239Z,52.60
2022-09-12T22:31:43.960Z,51.90
2022-09-12T22:34:12.738Z,51.80
2022-09-12T22:36:41.795Z,51.60
2022-09-12T22:39:10.473Z,51.70
2022-09-12T22:41:39.247Z,51.70
2022-09-12T22:44:10.533Z,51.60
2022-09-12T22:46:40.144Z,51.60
2022-09-12T22:49:09.076Z,51.60
2022-09-12T22:51:38.053Z,51.70
2022-09-12T22:54:07.213Z,51.70
2022-09-12T22:56:36.078Z,51.70
2022-09-12T22:59:05.605Z,51.60
2022-09-12T23:01:36.474Z,52.30
2022-09-12T23:04:05.401Z,51.70
2022-09-12T23:06:34.209Z,51.50
2022-09-12T23:09:02.840Z,51.30
2022-09-12T23:11:31.721Z,51.20
2022-09-12T23:14:00.430Z,51.10
2022-09-12T23:16:32.119Z,51.10
2022-09-12T23:19:02.156Z,51.60
2022-09-12T23:21:31.021Z,50.90
2022-09-12T23:23:59.685Z,50.90
2022-09-12T23:26:29.668Z,50.80
2022-09-12T23:29:01.878Z,50.80
2022-09-12T23:31:33.031Z,50.80
2022-09-12T23:34:06.877Z,50.90
2022-09-12T23:36:35.931Z,51.00
2022-09-12T23:39:05.624Z,50.80
2022-09-12T23:41:34.231Z,50.80
2022-09-12T23:44:03.485Z,51.00
2022-09-12T23:46:32.549Z,51.10
2022-09-12T23:49:02.578Z,51.00
2022-09-12T23:51:31.307Z,51.90
2022-09-12T23:54:00.107Z,51.30
2022-09-12T23:56:28.687Z,51.50
2022-09-12T23:58:57.349Z,51.50
